Terminal Aerodrome Forecast
Issued by NWS

Home | Current Version | Previous Version | Text Only | Print | Product List | Glossary On
Versions: 1 2 3 4 5 6 7 8 9 10 11 12 13 14 15 16 17 18
000
FTUS46 KMTR 181700
TAFSTS
TAF
KSTS 181738Z 1818/1918 VRB03KT 5SM BR BKN013 OVC019
     FM182200 12004KT P6SM BKN030
     FM190400 13003KT 6SM BR OVC020
     FM190600 14004KT 6SM -RA BR OVC020=

USA.gov is the U.S. government's official web portal to all federal, state and local government web resources and services.